sensor_id;sensor_type;location;lat;lon;timestamp;pressure;altitude;pressure_sealevel;temperature;humidity
35798;BME280;21918;49.940;7.774;2023-06-10T01:54:26;98510.56;;;25.43;40.57
35798;BME280;21918;49.940;7.774;2023-06-10T01:56:53;98524.69;;;25.47;40.41
35798;BME280;21918;49.940;7.774;2023-06-10T01:59:19;98519.78;;;25.47;40.34
35798;BME280;21918;49.940;7.774;2023-06-10T02:01:46;98525.03;;;25.49;40.64
35798;BME280;21918;49.940;7.774;2023-06-10T02:04:13;98514.84;;;25.51;40.65
35798;BME280;21918;49.940;7.774;2023-06-10T02:06:40;98519.31;;;25.52;40.37
35798;BME280;21918;49.940;7.774;2023-06-10T02:09:06;98516.31;;;25.59;40.59
35798;BME280;21918;49.940;7.774;2023-06-10T02:11:35;98524.00;;;25.59;40.65
35798;BME280;21918;49.940;7.774;2023-06-10T02:14:01;98523.19;;;25.58;40.64
35798;BME280;21918;49.940;7.774;2023-06-10T02:16:28;98528.16;;;25.54;40.58
35798;BME280;21918;49.940;7.774;2023-06-10T02:18:56;98530.56;;;25.56;40.64
35798;BME280;21918;49.940;7.774;2023-06-10T02:21:24;98532.22;;;25.53;40.52
35798;BME280;21918;49.940;7.774;2023-06-10T02:23:50;98532.28;;;25.50;40.38
35798;BME280;21918;49.940;7.774;2023-06-10T02:26:17;98530.41;;;25.43;40.33
35798;BME280;21918;49.940;7.774;2023-06-10T02:28:47;98535.72;;;25.41;40.27
35798;BME280;21918;49.940;7.774;2023-06-10T02:31:14;98535.00;;;25.37;40.74
35798;BME280;21918;49.940;7.774;2023-06-10T02:33:43;98535.81;;;25.38;40.61
35798;BME280;21918;49.940;7.774;2023-06-10T02:36:10;98536.66;;;25.35;40.64
35798;BME280;21918;49.940;7.774;2023-06-10T02:38:38;98541.53;;;25.34;40.64
35798;BME280;21918;49.940;7.774;2023-06-10T02:41:05;98535.84;;;25.34;40.55
35798;BME280;21918;49.940;7.774;2023-06-10T02:43:32;98534.22;;;25.37;40.49
35798;BME280;21918;49.940;7.774;2023-06-10T02:46:00;98540.16;;;25.42;40.41
35798;BME280;21918;49.940;7.774;2023-06-10T02:48:27;98545.47;;;25.40;40.76
35798;BME280;21918;49.940;7.774;2023-06-10T02:50:54;98545.53;;;25.37;40.75
35798;BME280;21918;49.940;7.774;2023-06-10T02:53:21;98544.00;;;25.32;40.80
35798;BME280;21918;49.940;7.774;2023-06-10T02:55:48;98537.22;;;25.26;40.90
35798;BME280;21918;49.940;7.774;2023-06-10T02:58:15;98540.09;;;25.23;40.78
35798;BME280;21918;49.940;7.774;2023-06-10T03:00:42;98539.38;;;25.19;40.75
35798;BME280;21918;49.940;7.774;2023-06-10T03:03:11;98548.59;;;25.23;41.05
35798;BME280;21918;49.940;7.774;2023-06-10T03:05:38;98545.34;;;25.24;40.94
35798;BME280;21918;49.940;7.774;2023-06-10T03:08:05;98542.59;;;25.21;41.03
35798;BME280;21918;49.940;7.774;2023-06-10T03:10:32;98543.88;;;25.16;40.92
35798;BME280;21918;49.940;7.774;2023-06-10T03:12:59;98541.91;;;25.13;41.01
35798;BME280;21918;49.940;7.774;2023-06-10T03:15:26;98542.00;;;25.10;40.74
35798;BME280;21918;49.940;7.774;2023-06-10T03:17:54;98542.44;;;25.08;41.04
35798;BME280;21918;49.940;7.774;2023-06-10T03:20:22;98539.16;;;25.10;40.92
35798;BME280;21918;49.940;7.774;2023-06-10T03:22:50;98544.84;;;25.10;40.84
35798;BME280;21918;49.940;7.774;2023-06-10T03:25:17;98546.03;;;25.09;41.21
35798;BME280;21918;49.940;7.774;2023-06-10T03:27:46;98542.44;;;25.08;40.98
35798;BME280;21918;49.940;7.774;2023-06-10T03:30:13;98548.53;;;25.07;41.11
35798;BME280;21918;49.940;7.774;2023-06-10T03:32:40;98548.16;;;25.05;41.15
35798;BME280;21918;49.940;7.774;2023-06-10T03:35:08;98557.94;;;25.00;41.24
35798;BME280;21918;49.940;7.774;2023-06-10T03:37:36;98552.41;;;24.93;41.27
35798;BME280;21918;49.940;7.774;2023-06-10T03:40:03;98549.41;;;24.81;41.13
35798;BME280;21918;49.940;7.774;2023-06-10T03:42:31;98556.44;;;24.73;41.51
35798;BME280;21918;49.940;7.774;2023-06-10T03:44:58;98548.38;;;24.71;41.52
35798;BME280;21918;49.940;7.774;2023-06-10T03:47:24;98554.78;;;24.75;41.75
35798;BME280;21918;49.940;7.774;2023-06-10T03:49:51;98555.94;;;24.78;41.58
35798;BME280;21918;49.940;7.774;2023-06-10T03:52:18;98557.09;;;24.80;41.64
35798;BME280;21918;49.940;7.774;2023-06-10T03:54:47;98558.22;;;24.86;41.53
35798;BME280;21918;49.940;7.774;2023-06-10T03:57:14;98558.66;;;24.85;41.46
35798;BME280;21918;49.940;7.774;2023-06-10T03:59:40;98557.84;;;24.84;41.74
35798;BME280;21918;49.940;7.774;2023-06-10T04:02:07;98558.22;;;24.86;41.55
35798;BME280;21918;49.940;7.774;2023-06-10T04:04:34;98556.19;;;24.87;41.64
35798;BME280;21918;49.940;7.774;2023-06-10T04:07:03;98557.34;;;24.89;41.56
35798;BME280;21918;49.940;7.774;2023-06-10T04:09:29;98567.09;;;24.88;41.37
35798;BME280;21918;49.940;7.774;2023-06-10T04:11:58;98558.16;;;24.90;41.70
35798;BME280;21918;49.940;7.774;2023-06-10T04:14:25;98561.78;;;24.90;41.60
35798;BME280;21918;49.940;7.774;2023-06-10T04:16:51;98560.19;;;24.89;41.57
35798;BME280;21918;49.940;7.774;2023-06-10T04:19:18;98567.13;;;24.85;41.88
35798;BME280;21918;49.940;7.774;2023-06-10T04:21:45;98560.75;;;24.81;41.64
35798;BME280;21918;49.940;7.774;2023-06-10T04:24:11;98566.84;;;24.79;41.66
35798;BME280;21918;49.940;7.774;2023-06-10T04:26:38;98567.22;;;24.81;41.72
35798;BME280;21918;49.940;7.774;2023-06-10T04:29:06;98572.44;;;24.83;41.89
35798;BME280;21918;49.940;7.774;2023-06-10T04:31:33;98578.03;;;24.86;42.00
35798;BME280;21918;49.940;7.774;2023-06-10T04:33:59;98569.50;;;24.90;42.11
35798;BME280;21918;49.940;7.774;2023-06-10T04:36:27;98581.25;;;24.88;41.86
35798;BME280;21918;49.940;7.774;2023-06-10T04:38:55;98574.34;;;24.89;41.98
35798;BME280;21918;49.940;7.774;2023-06-10T04:41:22;98572.31;;;24.90;41.96
35798;BME280;21918;49.940;7.774;2023-06-10T04:43:48;98568.25;;;24.91;41.91
35798;BME280;21918;49.940;7.774;2023-06-10T04:46:17;98573.09;;;24.90;41.77
35798;BME280;21918;49.940;7.774;2023-06-10T04:48:43;98575.50;;;24.92;41.87
35798;BME280;21918;49.940;7.774;2023-06-10T04:51:12;98570.56;;;24.96;42.02
35798;BME280;21918;49.940;7.774;2023-06-10T04:53:39;98566.44;;;25.00;42.04
35798;BME280;21918;49.940;7.774;2023-06-10T04:56:06;98582.16;;;25.05;42.05
35798;BME280;21918;49.940;7.774;2023-06-10T04:58:34;98572.84;;;25.04;42.14
35798;BME280;21918;49.940;7.774;2023-06-10T05:01:01;98581.72;;;25.06;42.21
35798;BME280;21918;49.940;7.774;2023-06-10T05:03:29;98569.09;;;25.11;42.17
35798;BME280;21918;49.940;7.774;2023-06-10T05:05:56;98572.78;;;25.08;42.16
35798;BME280;21918;49.940;7.774;2023-06-10T05:08:23;98581.28;;;25.08;42.40
35798;BME280;21918;49.940;7.774;2023-06-10T05:10:50;98576.34;;;25.12;42.27
35798;BME280;21918;49.940;7.774;2023-06-10T05:13:16;98583.19;;;25.14;42.21
35798;BME280;21918;49.940;7.774;2023-06-10T05:15:43;98576.22;;;25.19;42.35
35798;BME280;21918;49.940;7.774;2023-06-10T05:18:11;98573.78;;;25.21;42.22
35798;BME280;21918;49.940;7.774;2023-06-10T05:20:41;98574.94;;;25.23;42.11
35798;BME280;21918;49.940;7.774;2023-06-10T05:23:08;98578.13;;;25.25;42.10
35798;BME280;21918;49.940;7.774;2023-06-10T05:25:35;98575.31;;;25.25;41.94
35798;BME280;21918;49.940;7.774;2023-06-10T05:28:01;98572.47;;;25.25;42.10
35798;BME280;21918;49.940;7.774;2023-06-10T05:30:28;98568.78;;;25.28;42.19
35798;BME280;21918;49.940;7.774;2023-06-10T05:32:55;98574.06;;;25.26;42.42
35798;BME280;21918;49.940;7.774;2023-06-10T05:35:22;98569.22;;;25.27;42.32
35798;BME280;21918;49.940;7.774;2023-06-10T05:37:50;98562.63;;;25.30;42.30
35798;BME280;21918;49.940;7.774;2023-06-10T05:40:17;98570.38;;;25.29;42.39
35798;BME280;21918;49.940;7.774;2023-06-10T05:42:43;98571.13;;;25.30;42.57
35798;BME280;21918;49.940;7.774;2023-06-10T05:45:10;98567.13;;;25.31;42.35
35798;BME280;21918;49.940;7.774;2023-06-10T05:47:37;98565.81;;;25.35;42.63
35798;BME280;21918;49.940;7.774;2023-06-10T05:50:05;98573.81;;;25.40;42.52
35798;BME280;21918;49.940;7.774;2023-06-10T05:52:32;98571.34;;;25.42;42.75
35798;BME280;21918;49.940;7.774;2023-06-10T05:55:01;98576.16;;;25.45;42.59
35798;BME280;21918;49.940;7.774;2023-06-10T05:57:28;98579.00;;;25.45;42.93
